sensor_id;sensor_type;location;lat;lon;timestamp;P1;durP1;ratioP1;P2;durP2;ratioP2
67074;SDS011;53990;50.334;18.640;2023-10-19T00:01:59;9.00;;;8.30;;
67074;SDS011;53990;50.334;18.640;2023-10-19T00:04:27;8.40;;;7.70;;
67074;SDS011;53990;50.334;18.640;2023-10-19T00:06:59;8.80;;;8.10;;
67074;SDS011;53990;50.334;18.640;2023-10-19T00:09:27;9.20;;;8.50;;
67074;SDS011;53990;50.334;18.640;2023-10-19T00:12:04;9.20;;;8.50;;
67074;SDS011;53990;50.334;18.640;2023-10-19T00:14:37;9.00;;;8.30;;
67074;SDS011;53990;50.334;18.640;2023-10-19T00:17:05;8.30;;;7.60;;
67074;SDS011;53990;50.334;18.640;2023-10-19T00:19:39;9.10;;;8.30;;
67074;SDS011;53990;50.334;18.640;2023-10-19T00:22:08;8.60;;;7.80;;
67074;SDS011;53990;50.334;18.640;2023-10-19T00:24:35;8.00;;;7.40;;
67074;SDS011;53990;50.334;18.640;2023-10-19T00:27:02;8.20;;;7.50;;
67074;SDS011;53990;50.334;18.640;2023-10-19T00:29:42;8.10;;;7.40;;
67074;SDS011;53990;50.334;18.640;2023-10-19T00:32:15;8.20;;;7.50;;
67074;SDS011;53990;50.334;18.640;2023-10-19T00:34:45;9.10;;;8.40;;
67074;SDS011;53990;50.334;18.640;2023-10-19T00:37:19;8.80;;;8.10;;
67074;SDS011;53990;50.334;18.640;2023-10-19T00:39:53;8.70;;;8.00;;
67074;SDS011;53990;50.334;18.640;2023-10-19T00:42:22;8.00;;;7.40;;
67074;SDS011;53990;50.334;18.640;2023-10-19T00:44:58;8.30;;;7.60;;
67074;SDS011;53990;50.334;18.640;2023-10-19T00:47:32;9.10;;;8.40;;
67074;SDS011;53990;50.334;18.640;2023-10-19T00:50:08;8.70;;;7.90;;
67074;SDS011;53990;50.334;18.640;2023-10-19T00:52:42;8.60;;;7.90;;
67074;SDS011;53990;50.334;18.640;2023-10-19T00:55:17;8.50;;;7.90;;
67074;SDS011;53990;50.334;18.640;2023-10-19T00:57:48;8.50;;;7.80;;
67074;SDS011;53990;50.334;18.640;2023-10-19T01:00:16;9.00;;;8.30;;
67074;SDS011;53990;50.334;18.640;2023-10-19T01:02:57;8.80;;;8.10;;
67074;SDS011;53990;50.334;18.640;2023-10-19T01:05:26;8.80;;;8.20;;
67074;SDS011;53990;50.334;18.640;2023-10-19T01:08:03;9.40;;;8.70;;
67074;SDS011;53990;50.334;18.640;2023-10-19T01:10:41;8.40;;;7.70;;
67074;SDS011;53990;50.334;18.640;2023-10-19T01:13:10;8.10;;;7.50;;
67074;SDS011;53990;50.334;18.640;2023-10-19T01:15:39;8.70;;;8.00;;
67074;SDS011;53990;50.334;18.640;2023-10-19T01:18:07;8.50;;;7.80;;
67074;SDS011;53990;50.334;18.640;2023-10-19T01:20:38;8.70;;;7.90;;
67074;SDS011;53990;50.334;18.640;2023-10-19T01:23:18;8.80;;;8.10;;
67074;SDS011;53990;50.334;18.640;2023-10-19T01:25:57;9.30;;;8.60;;
67074;SDS011;53990;50.334;18.640;2023-10-19T01:28:28;8.90;;;8.20;;
67074;SDS011;53990;50.334;18.640;2023-10-19T01:31:19;8.20;;;7.50;;
67074;SDS011;53990;50.334;18.640;2023-10-19T01:33:57;8.70;;;8.00;;
67074;SDS011;53990;50.334;18.640;2023-10-19T01:36:25;8.90;;;8.20;;
67074;SDS011;53990;50.334;18.640;2023-10-19T01:38:55;8.60;;;7.90;;
67074;SDS011;53990;50.334;18.640;2023-10-19T01:41:24;9.10;;;8.40;;
67074;SDS011;53990;50.334;18.640;2023-10-19T01:43:54;9.50;;;8.80;;
67074;SDS011;53990;50.334;18.640;2023-10-19T01:46:23;8.50;;;7.90;;
67074;SDS011;53990;50.334;18.640;2023-10-19T01:48:52;8.90;;;8.20;;
67074;SDS011;53990;50.334;18.640;2023-10-19T01:51:23;9.30;;;8.60;;
67074;SDS011;53990;50.334;18.640;2023-10-19T01:53:55;8.50;;;7.80;;
67074;SDS011;53990;50.334;18.640;2023-10-19T01:56:23;8.90;;;8.20;;
67074;SDS011;53990;50.334;18.640;2023-10-19T01:58:52;9.40;;;8.70;;
67074;SDS011;53990;50.334;18.640;2023-10-19T02:01:20;9.10;;;8.40;;
67074;SDS011;53990;50.334;18.640;2023-10-19T02:03:58;9.30;;;8.50;;
67074;SDS011;53990;50.334;18.640;2023-10-19T02:06:27;9.60;;;8.80;;
67074;SDS011;53990;50.334;18.640;2023-10-19T02:09:10;9.30;;;8.60;;
67074;SDS011;53990;50.334;18.640;2023-10-19T02:11:47;9.00;;;8.30;;
67074;SDS011;53990;50.334;18.640;2023-10-19T02:14:17;9.10;;;8.40;;
67074;SDS011;53990;50.334;18.640;2023-10-19T02:16:47;9.40;;;8.70;;
67074;SDS011;53990;50.334;18.640;2023-10-19T02:19:22;8.70;;;8.00;;
67074;SDS011;53990;50.334;18.640;2023-10-19T02:21:58;9.90;;;9.10;;
67074;SDS011;53990;50.334;18.640;2023-10-19T02:24:27;10.20;;;9.40;;
67074;SDS011;53990;50.334;18.640;2023-10-19T02:26:56;9.70;;;9.00;;
67074;SDS011;53990;50.334;18.640;2023-10-19T02:29:24;9.70;;;8.90;;
67074;SDS011;53990;50.334;18.640;2023-10-19T02:31:53;8.90;;;8.20;;
67074;SDS011;53990;50.334;18.640;2023-10-19T02:34:21;9.80;;;9.00;;
67074;SDS011;53990;50.334;18.640;2023-10-19T02:36:50;9.00;;;8.30;;
67074;SDS011;53990;50.334;18.640;2023-10-19T02:39:17;8.80;;;8.10;;
67074;SDS011;53990;50.334;18.640;2023-10-19T02:41:46;9.00;;;8.30;;
67074;SDS011;53990;50.334;18.640;2023-10-19T02:44:17;9.10;;;8.40;;
67074;SDS011;53990;50.334;18.640;2023-10-19T02:46:45;8.90;;;8.20;;
67074;SDS011;53990;50.334;18.640;2023-10-19T02:49:14;8.80;;;8.20;;
67074;SDS011;53990;50.334;18.640;2023-10-19T02:51:45;8.60;;;7.90;;
67074;SDS011;53990;50.334;18.640;2023-10-19T02:54:14;8.80;;;8.00;;
67074;SDS011;53990;50.334;18.640;2023-10-19T02:56:48;9.10;;;8.40;;
67074;SDS011;53990;50.334;18.640;2023-10-19T02:59:21;9.30;;;8.50;;
67074;SDS011;53990;50.334;18.640;2023-10-19T03:01:54;8.50;;;7.80;;
67074;SDS011;53990;50.334;18.640;2023-10-19T03:06:57;9.00;;;8.30;;
67074;SDS011;53990;50.334;18.640;2023-10-19T03:09:24;8.60;;;7.90;;
67074;SDS011;53990;50.334;18.640;2023-10-19T03:11:55;8.20;;;7.60;;
67074;SDS011;53990;50.334;18.640;2023-10-19T03:14:27;9.10;;;8.30;;
67074;SDS011;53990;50.334;18.640;2023-10-19T03:16:56;8.80;;;8.10;;
67074;SDS011;53990;50.334;18.640;2023-10-19T03:19:24;9.20;;;8.40;;
67074;SDS011;53990;50.334;18.640;2023-10-19T03:21:53;8.90;;;8.20;;
67074;SDS011;53990;50.334;18.640;2023-10-19T03:24:23;8.90;;;8.20;;
67074;SDS011;53990;50.334;18.640;2023-10-19T03:27:05;8.90;;;8.10;;
67074;SDS011;53990;50.334;18.640;2023-10-19T03:29:50;9.60;;;8.90;;
67074;SDS011;53990;50.334;18.640;2023-10-19T03:32:26;10.50;;;9.60;;
67074;SDS011;53990;50.334;18.640;2023-10-19T03:34:55;9.40;;;8.70;;
67074;SDS011;53990;50.334;18.640;2023-10-19T03:37:23;9.60;;;8.90;;
67074;SDS011;53990;50.334;18.640;2023-10-19T03:39:52;9.00;;;8.30;;
67074;SDS011;53990;50.334;18.640;2023-10-19T03:42:23;9.40;;;8.50;;
67074;SDS011;53990;50.334;18.640;2023-10-19T03:45:00;9.70;;;9.00;;
67074;SDS011;53990;50.334;18.640;2023-10-19T03:47:29;9.40;;;8.70;;
67074;SDS011;53990;50.334;18.640;2023-10-19T03:50:02;9.50;;;8.80;;
67074;SDS011;53990;50.334;18.640;2023-10-19T03:52:35;9.40;;;8.70;;
67074;SDS011;53990;50.334;18.640;2023-10-19T03:55:05;9.20;;;8.40;;
67074;SDS011;53990;50.334;18.640;2023-10-19T03:57:52;8.30;;;7.70;;
67074;SDS011;53990;50.334;18.640;2023-10-19T04:00:21;8.60;;;8.00;;
67074;SDS011;53990;50.334;18.640;2023-10-19T04:02:52;8.70;;;8.10;;
67074;SDS011;53990;50.334;18.640;2023-10-19T04:05:25;9.30;;;8.60;;
67074;SDS011;53990;50.334;18.640;2023-10-19T04:07:55;9.10;;;8.40;;
67074;SDS011;53990;50.334;18.640;2023-10-19T04:10:25;9.20;;;8.50;;
67074;SDS011;53990;50.334;18.640;2023-10-19T04:13:01;9.10;;;8.40;;
67074;SDS011;53990;50.334;18.640;2023-10-19T04:15:29;9.40;;;8.70;;
67074;SDS011;53990;50.334;18.640;2023-10-19T04:18:00;9.10;;;8.40;;
67074;SDS011;53990;50.334;18.640;2023-10-19T04:20:28;8.90;;;8.30;;
67074;SDS011;53990;50.334;18.640;2023-10-19T04:23:14;9.00;;;8.30;;
67074;SDS011;53990;50.334;18.640;2023-10-19T04:25:44;8.90;;;8.20;;
67074;SDS011;53990;50.334;18.640;2023-10-19T04:28:14;9.30;;;8.60;;
67074;SDS011;53990;50.334;18.640;2023-10-19T04:30:42;9.10;;;8.40;;
67074;SDS011;53990;50.334;18.640;2023-10-19T04:33:09;9.50;;;8.70;;
67074;SDS011;53990;50.334;18.640;2023-10-19T04:35:37;8.80;;;8.10;;
67074;SDS011;53990;50.334;18.640;2023-10-19T04:38:08;9.40;;;8.60;;
67074;SDS011;53990;50.334;18.640;2023-10-19T04:40:36;9.00;;;8.30;;
67074;SDS011;53990;50.334;18.640;2023-10-19T04:43:03;8.60;;;7.90;;
67074;SDS011;53990;50.334;18.640;2023-10-19T04:45:32;8.90;;;8.20;;
67074;SDS011;53990;50.334;18.640;2023-10-19T04:48:00;9.50;;;8.70;;
67074;SDS011;53990;50.334;18.640;2023-10-19T04:50:30;8.30;;;7.70;;
67074;SDS011;53990;50.334;18.640;2023-10-19T04:52:57;8.50;;;7.80;;
67074;SDS011;53990;50.334;18.640;2023-10-19T04:55:24;8.80;;;8.20;;
67074;SDS011;53990;50.334;18.640;2023-10-19T04:57:51;9.40;;;8.70;;
67074;SDS011;53990;50.334;18.640;2023-10-19T05:00:19;8.60;;;7.90;;
67074;SDS011;53990;50.334;18.640;2023-10-19T05:02:47;9.10;;;8.40;;
67074;SDS011;53990;50.334;18.640;2023-10-19T05:05:14;9.40;;;8.60;;
67074;SDS011;53990;50.334;18.640;2023-10-19T05:07:44;9.20;;;8.30;;
67074;SDS011;53990;50.334;18.640;2023-10-19T05:10:11;8.90;;;8.10;;
67074;SDS011;53990;50.334;18.640;2023-10-19T05:12:41;8.50;;;7.70;;
67074;SDS011;53990;50.334;18.640;2023-10-19T05:15:08;8.80;;;8.00;;
67074;SDS011;53990;50.334;18.640;2023-10-19T05:17:35;8.50;;;7.80;;
67074;SDS011;53990;50.334;18.640;2023-10-19T05:20:03;8.10;;;7.50;;
67074;SDS011;53990;50.334;18.640;2023-10-19T05:22:32;8.50;;;7.80;;
67074;SDS011;53990;50.334;18.640;2023-10-19T05:24:59;7.80;;;7.20;;
67074;SDS011;53990;50.334;18.640;2023-10-19T05:27:27;7.90;;;7.20;;
67074;SDS011;53990;50.334;18.640;2023-10-19T05:29:55;8.30;;;7.60;;
67074;SDS011;53990;50.334;18.640;2023-10-19T05:32:22;8.80;;;8.10;;
67074;SDS011;53990;50.334;18.640;2023-10-19T05:34:49;8.10;;;7.40;;
67074;SDS011;53990;50.334;18.640;2023-10-19T05:37:16;8.10;;;7.50;;
67074;SDS011;53990;50.334;18.640;2023-10-19T05:39:45;8.10;;;7.40;;
67074;SDS011;53990;50.334;18.640;2023-10-19T05:42:13;7.50;;;6.90;;
67074;SDS011;53990;50.334;18.640;2023-10-19T05:44:41;7.50;;;6.90;;
67074;SDS011;53990;50.334;18.640;2023-10-19T05:47:08;7.70;;;7.10;;
67074;SDS011;53990;50.334;18.640;2023-10-19T05:49:35;7.40;;;6.80;;
67074;SDS011;53990;50.334;18.640;2023-10-19T05:52:02;7.20;;;6.60;;
67074;SDS011;53990;50.334;18.640;2023-10-19T05:54:30;7.10;;;6.60;;
67074;SDS011;53990;50.334;18.640;2023-10-19T05:56:57;7.80;;;7.10;;
67074;SDS011;53990;50.334;18.640;2023-10-19T05:59:25;7.50;;;6.90;;
67074;SDS011;53990;50.334;18.640;2023-10-19T06:01:54;7.30;;;6.80;;
67074;SDS011;53990;50.334;18.640;2023-10-19T06:04:21;7.50;;;6.90;;
67074;SDS011;53990;50.334;18.640;2023-10-19T06:06:48;6.90;;;6.30;;
67074;SDS011;53990;50.334;18.640;2023-10-19T06:09:15;7.40;;;6.80;;
67074;SDS011;53990;50.334;18.640;2023-10-19T06:11:44;7.50;;;6.90;;
67074;SDS011;53990;50.334;18.640;2023-10-19T06:14:11;7.40;;;6.80;;
67074;SDS011;53990;50.334;18.640;2023-10-19T06:16:39;7.50;;;6.90;;
67074;SDS011;53990;50.334;18.640;2023-10-19T06:19:07;7.60;;;7.00;;
67074;SDS011;53990;50.334;18.640;2023-10-19T06:21:34;7.80;;;7.20;;
67074;SDS011;53990;50.334;18.640;2023-10-19T06:24:03;7.50;;;6.90;;
67074;SDS011;53990;50.334;18.640;2023-10-19T06:26:31;7.70;;;7.00;;
67074;SDS011;53990;50.334;18.640;2023-10-19T06:28:58;8.30;;;7.70;;
67074;SDS011;53990;50.334;18.640;2023-10-19T06:31:26;7.70;;;7.10;;
67074;SDS011;53990;50.334;18.640;2023-10-19T06:33:53;8.10;;;7.50;;
67074;SDS011;53990;50.334;18.640;2023-10-19T06:36:20;8.20;;;7.60;;
67074;SDS011;53990;50.334;18.640;2023-10-19T06:38:47;8.40;;;7.70;;
67074;SDS011;53990;50.334;18.640;2023-10-19T06:41:17;7.40;;;6.80;;
67074;SDS011;53990;50.334;18.640;2023-10-19T06:43:45;8.70;;;8.00;;
67074;SDS011;53990;50.334;18.640;2023-10-19T06:46:13;8.10;;;7.40;;
67074;SDS011;53990;50.334;18.640;2023-10-19T06:48:41;8.00;;;7.40;;
67074;SDS011;53990;50.334;18.640;2023-10-19T06:51:09;7.90;;;7.20;;
67074;SDS011;53990;50.334;18.640;2023-10-19T06:53:38;8.30;;;7.60;;
67074;SDS011;53990;50.334;18.640;2023-10-19T06:56:07;7.90;;;7.30;;
67074;SDS011;53990;50.334;18.640;2023-10-19T06:58:34;8.30;;;7.50;;
67074;SDS011;53990;50.334;18.640;2023-10-19T07:01:07;8.10;;;7.50;;
67074;SDS011;53990;50.334;18.640;2023-10-19T07:03:35;8.20;;;7.50;;
67074;SDS011;53990;50.334;18.640;2023-10-19T07:06:02;7.80;;;7.20;;
67074;SDS011;53990;50.334;18.640;2023-10-19T07:08:30;8.10;;;7.40;;
67074;SDS011;53990;50.334;18.640;2023-10-19T07:10:57;7.50;;;6.90;;
67074;SDS011;53990;50.334;18.640;2023-10-19T07:13:25;7.50;;;6.90;;
67074;SDS011;53990;50.334;18.640;2023-10-19T07:15:52;7.90;;;7.30;;
67074;SDS011;53990;50.334;18.640;2023-10-19T07:18:19;7.60;;;6.90;;
67074;SDS011;53990;50.334;18.640;2023-10-19T07:20:46;7.40;;;6.80;;
67074;SDS011;53990;50.334;18.640;2023-10-19T07:23:15;7.90;;;7.20;;
67074;SDS011;53990;50.334;18.640;2023-10-19T07:25:46;7.40;;;6.80;;
67074;SDS011;53990;50.334;18.640;2023-10-19T07:28:15;7.80;;;7.10;;
67074;SDS011;53990;50.334;18.640;2023-10-19T07:30:43;8.10;;;7.40;;
67074;SDS011;53990;50.334;18.640;2023-10-19T07:33:10;8.20;;;7.60;;
67074;SDS011;53990;50.334;18.640;2023-10-19T07:35:37;8.00;;;7.30;;
67074;SDS011;53990;50.334;18.640;2023-10-19T07:38:05;7.20;;;6.60;;
67074;SDS011;53990;50.334;18.640;2023-10-19T07:40:35;7.20;;;6.50;;
67074;SDS011;53990;50.334;18.640;2023-10-19T07:43:02;7.20;;;6.60;;
67074;SDS011;53990;50.334;18.640;2023-10-19T07:45:30;7.90;;;7.20;;
67074;SDS011;53990;50.334;18.640;2023-10-19T07:47:58;7.50;;;6.90;;
67074;SDS011;53990;50.334;18.640;2023-10-19T07:50:33;7.70;;;7.00;;
67074;SDS011;53990;50.334;18.640;2023-10-19T07:53:02;7.50;;;6.90;;
67074;SDS011;53990;50.334;18.640;2023-10-19T07:55:30;7.50;;;6.90;;
67074;SDS011;53990;50.334;18.640;2023-10-19T07:58:00;7.30;;;6.60;;
67074;SDS011;53990;50.334;18.640;2023-10-19T08:00:27;7.40;;;6.80;;
67074;SDS011;53990;50.334;18.640;2023-10-19T08:02:56;7.70;;;7.00;;
67074;SDS011;53990;50.334;18.640;2023-10-19T08:05:23;7.30;;;6.70;;
67074;SDS011;53990;50.334;18.640;2023-10-19T08:07:51;7.20;;;6.60;;
67074;SDS011;53990;50.334;18.640;2023-10-19T08:10:20;8.20;;;7.40;;
67074;SDS011;53990;50.334;18.640;2023-10-19T08:12:50;7.30;;;6.70;;
67074;SDS011;53990;50.334;18.640;2023-10-19T08:15:19;7.90;;;7.20;;
67074;SDS011;53990;50.334;18.640;2023-10-19T08:17:49;8.00;;;7.30;;
67074;SDS011;53990;50.334;18.640;2023-10-19T08:20:22;7.10;;;6.50;;
67074;SDS011;53990;50.334;18.640;2023-10-19T08:22:54;6.70;;;6.10;;
67074;SDS011;53990;50.334;18.640;2023-10-19T08:25:24;7.70;;;7.10;;
67074;SDS011;53990;50.334;18.640;2023-10-19T08:27:54;7.20;;;6.60;;
67074;SDS011;53990;50.334;18.640;2023-10-19T08:30:24;7.40;;;6.70;;
67074;SDS011;53990;50.334;18.640;2023-10-19T08:32:51;7.60;;;7.00;;
67074;SDS011;53990;50.334;18.640;2023-10-19T08:35:20;6.90;;;6.40;;
67074;SDS011;53990;50.334;18.640;2023-10-19T08:37:51;7.50;;;6.80;;
67074;SDS011;53990;50.334;18.640;2023-10-19T08:40:20;7.10;;;6.50;;
67074;SDS011;53990;50.334;18.640;2023-10-19T08:42:48;6.90;;;6.30;;
67074;SDS011;53990;50.334;18.640;2023-10-19T08:45:15;6.10;;;5.60;;
67074;SDS011;53990;50.334;18.640;2023-10-19T08:48:11;6.60;;;6.00;;
67074;SDS011;53990;50.334;18.640;2023-10-19T08:50:38;7.40;;;5.60;;
67074;SDS011;53990;50.334;18.640;2023-10-19T08:53:07;6.00;;;5.50;;
67074;SDS011;53990;50.334;18.640;2023-10-19T08:55:40;6.30;;;5.40;;
67074;SDS011;53990;50.334;18.640;2023-10-19T08:58:07;5.90;;;5.30;;
67074;SDS011;53990;50.334;18.640;2023-10-19T09:00:48;5.10;;;4.60;;
67074;SDS011;53990;50.334;18.640;2023-10-19T09:03:15;5.20;;;4.70;;
67074;SDS011;53990;50.334;18.640;2023-10-19T09:05:43;5.40;;;4.40;;
67074;SDS011;53990;50.334;18.640;2023-10-19T09:08:17;5.30;;;4.50;;
67074;SDS011;53990;50.334;18.640;2023-10-19T09:10:45;4.60;;;4.10;;
67074;SDS011;53990;50.334;18.640;2023-10-19T09:13:12;4.50;;;4.10;;
67074;SDS011;53990;50.334;18.640;2023-10-19T09:15:41;4.70;;;4.20;;
67074;SDS011;53990;50.334;18.640;2023-10-19T09:18:17;4.60;;;4.20;;
67074;SDS011;53990;50.334;18.640;2023-10-19T09:20:46;5.30;;;4.30;;
67074;SDS011;53990;50.334;18.640;2023-10-19T09:23:34;4.40;;;4.00;;
67074;SDS011;53990;50.334;18.640;2023-10-19T09:26:03;4.80;;;4.40;;
67074;SDS011;53990;50.334;18.640;2023-10-19T09:28:30;4.40;;;4.00;;
67074;SDS011;53990;50.334;18.640;2023-10-19T09:31:00;4.60;;;4.20;;
67074;SDS011;53990;50.334;18.640;2023-10-19T09:33:27;6.10;;;5.00;;
67074;SDS011;53990;50.334;18.640;2023-10-19T09:35:54;4.80;;;4.40;;
67074;SDS011;53990;50.334;18.640;2023-10-19T09:38:23;4.70;;;4.30;;
67074;SDS011;53990;50.334;18.640;2023-10-19T09:40:51;6.00;;;4.40;;
67074;SDS011;53990;50.334;18.640;2023-10-19T09:46:06;4.70;;;4.20;;
67074;SDS011;53990;50.334;18.640;2023-10-19T09:48:37;5.70;;;4.30;;
67074;SDS011;53990;50.334;18.640;2023-10-19T09:51:05;4.80;;;4.40;;
67074;SDS011;53990;50.334;18.640;2023-10-19T09:53:35;5.30;;;4.90;;
67074;SDS011;53990;50.334;18.640;2023-10-19T09:56:05;5.70;;;4.60;;
67074;SDS011;53990;50.334;18.640;2023-10-19T09:58:35;5.00;;;4.60;;
67074;SDS011;53990;50.334;18.640;2023-10-19T10:01:04;5.00;;;4.60;;
67074;SDS011;53990;50.334;18.640;2023-10-19T10:06:11;6.50;;;4.50;;
67074;SDS011;53990;50.334;18.640;2023-10-19T10:08:38;4.70;;;4.10;;
67074;SDS011;53990;50.334;18.640;2023-10-19T10:11:13;5.70;;;4.70;;
67074;SDS011;53990;50.334;18.640;2023-10-19T10:13:41;4.80;;;4.40;;
67074;SDS011;53990;50.334;18.640;2023-10-19T10:16:07;5.40;;;4.40;;
67074;SDS011;53990;50.334;18.640;2023-10-19T10:18:35;4.60;;;4.20;;
67074;SDS011;53990;50.334;18.640;2023-10-19T10:21:05;5.40;;;4.30;;
67074;SDS011;53990;50.334;18.640;2023-10-19T10:26:11;4.50;;;4.10;;
67074;SDS011;53990;50.334;18.640;2023-10-19T10:28:40;5.30;;;4.60;;
67074;SDS011;53990;50.334;18.640;2023-10-19T10:36:06;5.20;;;4.80;;
67074;SDS011;53990;50.334;18.640;2023-10-19T10:38:34;4.70;;;4.20;;
67074;SDS011;53990;50.334;18.640;2023-10-19T10:41:02;4.80;;;4.40;;
67074;SDS011;53990;50.334;18.640;2023-10-19T10:43:28;4.40;;;4.00;;
67074;SDS011;53990;50.334;18.640;2023-10-19T10:46:07;4.90;;;4.50;;
67074;SDS011;53990;50.334;18.640;2023-10-19T10:48:40;5.10;;;4.60;;
67074;SDS011;53990;50.334;18.640;2023-10-19T10:51:18;5.40;;;4.80;;
67074;SDS011;53990;50.334;18.640;2023-10-19T10:53:48;5.10;;;4.70;;
67074;SDS011;53990;50.334;18.640;2023-10-19T10:56:16;5.10;;;4.70;;
67074;SDS011;53990;50.334;18.640;2023-10-19T10:58:43;4.50;;;4.10;;
67074;SDS011;53990;50.334;18.640;2023-10-19T11:01:10;5.20;;;4.80;;
67074;SDS011;53990;50.334;18.640;2023-10-19T11:03:37;5.10;;;4.70;;
67074;SDS011;53990;50.334;18.640;2023-10-19T11:06:05;4.80;;;4.40;;
67074;SDS011;53990;50.334;18.640;2023-10-19T11:08:34;5.00;;;4.60;;
67074;SDS011;53990;50.334;18.640;2023-10-19T11:11:06;5.60;;;4.90;;
67074;SDS011;53990;50.334;18.640;2023-10-19T11:13:33;5.10;;;4.70;;
67074;SDS011;53990;50.334;18.640;2023-10-19T11:16:02;4.30;;;4.00;;
67074;SDS011;53990;50.334;18.640;2023-10-19T11:18:33;5.40;;;5.00;;
67074;SDS011;53990;50.334;18.640;2023-10-19T11:21:02;4.80;;;4.40;;
67074;SDS011;53990;50.334;18.640;2023-10-19T11:23:37;4.70;;;4.40;;
67074;SDS011;53990;50.334;18.640;2023-10-19T11:26:04;5.40;;;4.90;;
67074;SDS011;53990;50.334;18.640;2023-10-19T11:28:32;5.50;;;5.00;;
67074;SDS011;53990;50.334;18.640;2023-10-19T11:33:42;5.50;;;5.10;;
67074;SDS011;53990;50.334;18.640;2023-10-19T11:36:10;5.30;;;4.90;;
67074;SDS011;53990;50.334;18.640;2023-10-19T11:38:45;5.50;;;5.00;;
67074;SDS011;53990;50.334;18.640;2023-10-19T11:41:12;5.20;;;4.80;;
67074;SDS011;53990;50.334;18.640;2023-10-19T11:43:40;5.40;;;5.00;;
67074;SDS011;53990;50.334;18.640;2023-10-19T11:46:07;5.30;;;4.90;;
67074;SDS011;53990;50.334;18.640;2023-10-19T11:48:34;5.30;;;4.90;;
67074;SDS011;53990;50.334;18.640;2023-10-19T11:51:02;5.50;;;5.10;;
67074;SDS011;53990;50.334;18.640;2023-10-19T11:53:33;5.70;;;5.30;;
67074;SDS011;53990;50.334;18.640;2023-10-19T11:56:01;5.30;;;4.90;;
67074;SDS011;53990;50.334;18.640;2023-10-19T11:58:29;6.00;;;5.50;;
67074;SDS011;53990;50.334;18.640;2023-10-19T12:00:56;5.40;;;5.00;;
67074;SDS011;53990;50.334;18.640;2023-10-19T12:03:23;5.50;;;5.10;;
67074;SDS011;53990;50.334;18.640;2023-10-19T12:05:50;5.70;;;5.30;;
67074;SDS011;53990;50.334;18.640;2023-10-19T12:08:19;5.40;;;5.00;;
67074;SDS011;53990;50.334;18.640;2023-10-19T12:10:46;5.30;;;4.90;;
67074;SDS011;53990;50.334;18.640;2023-10-19T12:13:12;5.40;;;5.00;;
67074;SDS011;53990;50.334;18.640;2023-10-19T12:15:39;5.90;;;5.40;;
67074;SDS011;53990;50.334;18.640;2023-10-19T12:18:07;5.50;;;5.10;;
67074;SDS011;53990;50.334;18.640;2023-10-19T12:20:35;5.90;;;5.40;;
67074;SDS011;53990;50.334;18.640;2023-10-19T12:23:02;5.70;;;5.30;;
67074;SDS011;53990;50.334;18.640;2023-10-19T12:25:29;5.80;;;5.40;;
67074;SDS011;53990;50.334;18.640;2023-10-19T12:27:57;5.90;;;5.40;;
67074;SDS011;53990;50.334;18.640;2023-10-19T12:30:24;6.00;;;5.50;;
67074;SDS011;53990;50.334;18.640;2023-10-19T12:32:52;6.00;;;5.50;;
67074;SDS011;53990;50.334;18.640;2023-10-19T12:35:19;6.60;;;6.00;;
67074;SDS011;53990;50.334;18.640;2023-10-19T12:37:50;5.40;;;5.00;;
67074;SDS011;53990;50.334;18.640;2023-10-19T12:40:22;6.10;;;5.60;;
67074;SDS011;53990;50.334;18.640;2023-10-19T12:42:56;6.10;;;5.60;;
67074;SDS011;53990;50.334;18.640;2023-10-19T12:45:24;6.30;;;5.80;;
67074;SDS011;53990;50.334;18.640;2023-10-19T12:47:51;5.80;;;5.30;;
67074;SDS011;53990;50.334;18.640;2023-10-19T12:50:19;6.00;;;5.50;;
67074;SDS011;53990;50.334;18.640;2023-10-19T12:52:49;5.50;;;5.10;;
67074;SDS011;53990;50.334;18.640;2023-10-19T12:55:17;5.60;;;5.20;;
67074;SDS011;53990;50.334;18.640;2023-10-19T12:57:44;5.90;;;5.50;;
67074;SDS011;53990;50.334;18.640;2023-10-19T13:00:11;5.50;;;5.00;;
67074;SDS011;53990;50.334;18.640;2023-10-19T13:02:52;5.60;;;5.20;;
67074;SDS011;53990;50.334;18.640;2023-10-19T13:05:37;5.50;;;5.00;;
67074;SDS011;53990;50.334;18.640;2023-10-19T13:08:06;6.10;;;5.70;;
67074;SDS011;53990;50.334;18.640;2023-10-19T13:10:34;6.10;;;5.70;;
67074;SDS011;53990;50.334;18.640;2023-10-19T13:13:04;6.00;;;5.60;;
67074;SDS011;53990;50.334;18.640;2023-10-19T13:15:35;7.20;;;6.60;;
67074;SDS011;53990;50.334;18.640;2023-10-19T13:18:03;6.50;;;6.00;;
67074;SDS011;53990;50.334;18.640;2023-10-19T13:20:30;7.40;;;6.80;;
67074;SDS011;53990;50.334;18.640;2023-10-19T13:23:01;7.60;;;7.00;;
67074;SDS011;53990;50.334;18.640;2023-10-19T13:25:33;7.10;;;6.60;;
67074;SDS011;53990;50.334;18.640;2023-10-19T13:28:14;7.00;;;6.50;;
67074;SDS011;53990;50.334;18.640;2023-10-19T13:30:42;6.90;;;6.40;;
67074;SDS011;53990;50.334;18.640;2023-10-19T13:33:10;7.40;;;6.80;;
67074;SDS011;53990;50.334;18.640;2023-10-19T13:35:39;7.30;;;6.70;;
67074;SDS011;53990;50.334;18.640;2023-10-19T13:38:08;7.50;;;6.90;;
67074;SDS011;53990;50.334;18.640;2023-10-19T13:40:36;6.70;;;6.20;;
67074;SDS011;53990;50.334;18.640;2023-10-19T13:43:03;7.10;;;6.60;;
67074;SDS011;53990;50.334;18.640;2023-10-19T13:45:32;6.70;;;6.20;;
67074;SDS011;53990;50.334;18.640;2023-10-19T13:48:04;6.90;;;6.40;;
67074;SDS011;53990;50.334;18.640;2023-10-19T13:50:33;7.00;;;6.40;;
67074;SDS011;53990;50.334;18.640;2023-10-19T13:53:01;7.60;;;7.00;;
67074;SDS011;53990;50.334;18.640;2023-10-19T13:55:31;7.80;;;7.20;;
67074;SDS011;53990;50.334;18.640;2023-10-19T13:57:59;7.70;;;7.10;;
67074;SDS011;53990;50.334;18.640;2023-10-19T14:00:28;8.20;;;7.60;;
67074;SDS011;53990;50.334;18.640;2023-10-19T14:03:02;7.10;;;6.60;;
67074;SDS011;53990;50.334;18.640;2023-10-19T14:05:45;8.80;;;8.00;;
67074;SDS011;53990;50.334;18.640;2023-10-19T14:08:16;8.80;;;8.10;;
67074;SDS011;53990;50.334;18.640;2023-10-19T14:10:44;8.70;;;8.00;;
67074;SDS011;53990;50.334;18.640;2023-10-19T14:13:14;8.40;;;7.80;;
67074;SDS011;53990;50.334;18.640;2023-10-19T14:15:43;8.10;;;7.50;;
67074;SDS011;53990;50.334;18.640;2023-10-19T14:18:10;8.50;;;7.90;;
67074;SDS011;53990;50.334;18.640;2023-10-19T14:20:40;8.60;;;8.00;;
67074;SDS011;53990;50.334;18.640;2023-10-19T14:23:07;8.30;;;7.70;;
67074;SDS011;53990;50.334;18.640;2023-10-19T14:25:38;9.00;;;8.30;;
67074;SDS011;53990;50.334;18.640;2023-10-19T14:28:06;8.80;;;8.10;;
67074;SDS011;53990;50.334;18.640;2023-10-19T14:30:36;9.20;;;8.50;;
67074;SDS011;53990;50.334;18.640;2023-10-19T14:33:04;8.70;;;8.10;;
67074;SDS011;53990;50.334;18.640;2023-10-19T14:35:36;9.60;;;8.90;;
67074;SDS011;53990;50.334;18.640;2023-10-19T14:38:05;9.00;;;8.30;;
67074;SDS011;53990;50.334;18.640;2023-10-19T14:40:35;9.10;;;8.40;;
67074;SDS011;53990;50.334;18.640;2023-10-19T14:43:02;9.00;;;8.30;;
67074;SDS011;53990;50.334;18.640;2023-10-19T14:45:30;9.60;;;8.90;;
67074;SDS011;53990;50.334;18.640;2023-10-19T14:47:58;8.80;;;8.20;;
67074;SDS011;53990;50.334;18.640;2023-10-19T14:50:25;9.10;;;8.40;;
67074;SDS011;53990;50.334;18.640;2023-10-19T14:52:53;9.50;;;8.80;;
67074;SDS011;53990;50.334;18.640;2023-10-19T14:55:22;9.00;;;8.30;;
67074;SDS011;53990;50.334;18.640;2023-10-19T14:57:51;9.00;;;8.30;;
67074;SDS011;53990;50.334;18.640;2023-10-19T15:00:23;9.80;;;9.00;;
67074;SDS011;53990;50.334;18.640;2023-10-19T15:03:11;9.30;;;8.60;;
67074;SDS011;53990;50.334;18.640;2023-10-19T15:05:38;8.90;;;8.30;;
67074;SDS011;53990;50.334;18.640;2023-10-19T15:08:07;9.30;;;8.50;;